sensor_id;sensor_type;location;lat;lon;timestamp;P1;durP1;ratioP1;P2;durP2;ratioP2
21543;SDS011;10933;50.754;11.508;2022-09-12T00:00:04;30.88;;;12.15;;
21543;SDS011;10933;50.754;11.508;2022-09-12T00:02:31;32.85;;;14.13;;
21543;SDS011;10933;50.754;11.508;2022-09-12T00:04:57;106.18;;;14.68;;
21543;SDS011;10933;50.754;11.508;2022-09-12T00:07:24;49.10;;;13.65;;
21543;SDS011;10933;50.754;11.508;2022-09-12T00:09:50;22.88;;;13.85;;
21543;SDS011;10933;50.754;11.508;2022-09-12T00:12:16;35.50;;;14.32;;
21543;SDS011;10933;50.754;11.508;2022-09-12T00:14:42;18.42;;;13.73;;
21543;SDS011;10933;50.754;11.508;2022-09-12T00:17:08;28.00;;;14.25;;
21543;SDS011;10933;50.754;11.508;2022-09-12T00:19:34;43.60;;;14.70;;
21543;SDS011;10933;50.754;11.508;2022-09-12T00:22:01;19.42;;;13.07;;
21543;SDS011;10933;50.754;11.508;2022-09-12T00:24:27;13.43;;;12.45;;
21543;SDS011;10933;50.754;11.508;2022-09-12T00:26:53;13.77;;;12.18;;
21543;SDS011;10933;50.754;11.508;2022-09-12T00:29:20;13.65;;;11.93;;
21543;SDS011;10933;50.754;11.508;2022-09-12T00:31:46;20.10;;;13.40;;
21543;SDS011;10933;50.754;11.508;2022-09-12T00:34:13;19.10;;;12.32;;
21543;SDS011;10933;50.754;11.508;2022-09-12T00:36:39;33.42;;;13.98;;
21543;SDS011;10933;50.754;11.508;2022-09-12T00:39:06;28.70;;;14.73;;
21543;SDS011;10933;50.754;11.508;2022-09-12T00:41:37;27.53;;;14.03;;
21543;SDS011;10933;50.754;11.508;2022-09-12T00:49:30;22.33;;;12.98;;
21543;SDS011;10933;50.754;11.508;2022-09-12T00:52:02;13.30;;;12.27;;
21543;SDS011;10933;50.754;11.508;2022-09-12T00:54:50;13.07;;;12.07;;
21543;SDS011;10933;50.754;11.508;2022-09-12T00:57:22;11.68;;;10.68;;
21543;SDS011;10933;50.754;11.508;2022-09-12T00:59:56;12.18;;;11.23;;
21543;SDS011;10933;50.754;11.508;2022-09-12T01:02:27;10.77;;;10.10;;
21543;SDS011;10933;50.754;11.508;2022-09-12T01:04:53;10.90;;;10.30;;
21543;SDS011;10933;50.754;11.508;2022-09-12T01:07:20;9.98;;;9.30;;
21543;SDS011;10933;50.754;11.508;2022-09-12T01:09:46;10.23;;;9.63;;
21543;SDS011;10933;50.754;11.508;2022-09-12T01:12:13;9.93;;;9.13;;
21543;SDS011;10933;50.754;11.508;2022-09-12T01:14:40;10.60;;;9.90;;
21543;SDS011;10933;50.754;11.508;2022-09-12T01:17:09;10.48;;;9.65;;
21543;SDS011;10933;50.754;11.508;2022-09-12T01:20:02;10.45;;;9.75;;
21543;SDS011;10933;50.754;11.508;2022-09-12T01:22:49;10.18;;;9.23;;
21543;SDS011;10933;50.754;11.508;2022-09-12T01:25:23;9.17;;;8.57;;
21543;SDS011;10933;50.754;11.508;2022-09-12T01:31:12;19.93;;;12.33;;
21543;SDS011;10933;50.754;11.508;2022-09-12T01:34:00;12.93;;;11.63;;
21543;SDS011;10933;50.754;11.508;2022-09-12T01:36:40;10.97;;;10.33;;
21543;SDS011;10933;50.754;11.508;2022-09-12T01:44:49;9.57;;;8.80;;
21543;SDS011;10933;50.754;11.508;2022-09-12T01:52:36;12.10;;;10.80;;
21543;SDS011;10933;50.754;11.508;2022-09-12T01:55:37;12.73;;;11.93;;
21543;SDS011;10933;50.754;11.508;2022-09-12T01:58:19;19.37;;;11.50;;
21543;SDS011;10933;50.754;11.508;2022-09-12T02:00:54;10.48;;;9.80;;
21543;SDS011;10933;50.754;11.508;2022-09-12T02:03:33;11.88;;;11.18;;
21543;SDS011;10933;50.754;11.508;2022-09-12T02:06:11;10.80;;;10.10;;
21543;SDS011;10933;50.754;11.508;2022-09-12T02:08:45;11.23;;;10.23;;
21543;SDS011;10933;50.754;11.508;2022-09-12T02:11:22;10.90;;;10.00;;
21543;SDS011;10933;50.754;11.508;2022-09-12T02:13:55;9.97;;;9.27;;
21543;SDS011;10933;50.754;11.508;2022-09-12T02:16:47;10.20;;;9.60;;
21543;SDS011;10933;50.754;11.508;2022-09-12T02:19:20;10.60;;;9.90;;
21543;SDS011;10933;50.754;11.508;2022-09-12T02:21:50;11.50;;;10.60;;
21543;SDS011;10933;50.754;11.508;2022-09-12T02:24:23;10.98;;;10.32;;
21543;SDS011;10933;50.754;11.508;2022-09-12T02:26:57;12.32;;;11.55;;
21543;SDS011;10933;50.754;11.508;2022-09-12T02:29:28;13.63;;;11.97;;
21543;SDS011;10933;50.754;11.508;2022-09-12T02:32:04;13.82;;;12.68;;
21543;SDS011;10933;50.754;11.508;2022-09-12T02:40:09;12.60;;;11.63;;
21543;SDS011;10933;50.754;11.508;2022-09-12T02:42:36;13.77;;;12.70;;
21543;SDS011;10933;50.754;11.508;2022-09-12T02:45:03;14.77;;;13.65;;
21543;SDS011;10933;50.754;11.508;2022-09-12T02:47:31;13.38;;;12.38;;
21543;SDS011;10933;50.754;11.508;2022-09-12T02:50:11;13.23;;;12.43;;
21543;SDS011;10933;50.754;11.508;2022-09-12T02:52:38;13.30;;;12.50;;
21543;SDS011;10933;50.754;11.508;2022-09-12T02:55:06;12.97;;;11.97;;
21543;SDS011;10933;50.754;11.508;2022-09-12T02:57:35;15.77;;;12.80;;
21543;SDS011;10933;50.754;11.508;2022-09-12T03:00:02;17.73;;;13.47;;
21543;SDS011;10933;50.754;11.508;2022-09-12T03:08:20;11.97;;;11.07;;
21543;SDS011;10933;50.754;11.508;2022-09-12T03:24:24;12.47;;;11.20;;
21543;SDS011;10933;50.754;11.508;2022-09-12T03:27:01;12.30;;;11.30;;
21543;SDS011;10933;50.754;11.508;2022-09-12T03:29:30;18.90;;;10.50;;
21543;SDS011;10933;50.754;11.508;2022-09-12T03:31:57;9.97;;;9.23;;
21543;SDS011;10933;50.754;11.508;2022-09-12T03:34:24;12.90;;;11.53;;
21543;SDS011;10933;50.754;11.508;2022-09-12T03:36:51;11.00;;;10.40;;
21543;SDS011;10933;50.754;11.508;2022-09-12T03:39:22;11.60;;;10.43;;
21543;SDS011;10933;50.754;11.508;2022-09-12T03:41:50;10.13;;;9.53;;
21543;SDS011;10933;50.754;11.508;2022-09-12T03:44:17;12.13;;;11.33;;
21543;SDS011;10933;50.754;11.508;2022-09-12T03:46:43;10.97;;;10.07;;
21543;SDS011;10933;50.754;11.508;2022-09-12T03:49:10;11.77;;;11.07;;
21543;SDS011;10933;50.754;11.508;2022-09-12T03:51:37;24.10;;;21.20;;
21543;SDS011;10933;50.754;11.508;2022-09-12T03:54:04;20.97;;;11.17;;
21543;SDS011;10933;50.754;11.508;2022-09-12T03:56:31;11.73;;;10.93;;
21543;SDS011;10933;50.754;11.508;2022-09-12T03:58:57;11.80;;;10.87;;
21543;SDS011;10933;50.754;11.508;2022-09-12T04:01:23;14.43;;;11.53;;
21543;SDS011;10933;50.754;11.508;2022-09-12T04:03:50;35.03;;;11.93;;
21543;SDS011;10933;50.754;11.508;2022-09-12T04:06:18;12.57;;;10.53;;
21543;SDS011;10933;50.754;11.508;2022-09-12T04:08:49;23.30;;;9.97;;
21543;SDS011;10933;50.754;11.508;2022-09-12T04:11:17;9.63;;;8.73;;
21543;SDS011;10933;50.754;11.508;2022-09-12T04:13:45;10.27;;;9.23;;
21543;SDS011;10933;50.754;11.508;2022-09-12T04:16:13;8.30;;;7.80;;
21543;SDS011;10933;50.754;11.508;2022-09-12T04:18:40;24.17;;;8.50;;
21543;SDS011;10933;50.754;11.508;2022-09-12T04:21:08;9.30;;;8.47;;
21543;SDS011;10933;50.754;11.508;2022-09-12T04:23:36;8.70;;;8.20;;
21543;SDS011;10933;50.754;11.508;2022-09-12T04:26:03;9.27;;;8.67;;
21543;SDS011;10933;50.754;11.508;2022-09-12T04:28:30;8.60;;;8.10;;
21543;SDS011;10933;50.754;11.508;2022-09-12T04:31:00;8.63;;;7.93;;
21543;SDS011;10933;50.754;11.508;2022-09-12T04:33:28;9.30;;;7.50;;
21543;SDS011;10933;50.754;11.508;2022-09-12T04:35:54;8.87;;;8.03;;
21543;SDS011;10933;50.754;11.508;2022-09-12T04:38:20;9.03;;;7.70;;
21543;SDS011;10933;50.754;11.508;2022-09-12T04:40:46;7.70;;;7.00;;
21543;SDS011;10933;50.754;11.508;2022-09-12T04:43:12;8.97;;;7.63;;
21543;SDS011;10933;50.754;11.508;2022-09-12T04:45:38;8.50;;;8.00;;
21543;SDS011;10933;50.754;11.508;2022-09-12T04:48:04;18.57;;;8.73;;
21543;SDS011;10933;50.754;11.508;2022-09-12T04:50:31;9.07;;;7.87;;
21543;SDS011;10933;50.754;11.508;2022-09-12T04:52:57;9.67;;;8.80;;
21543;SDS011;10933;50.754;11.508;2022-09-12T04:55:23;9.50;;;8.80;;
21543;SDS011;10933;50.754;11.508;2022-09-12T04:57:49;11.00;;;10.10;;
21543;SDS011;10933;50.754;11.508;2022-09-12T05:00:16;10.43;;;9.63;;
21543;SDS011;10933;50.754;11.508;2022-09-12T05:02:42;9.73;;;9.10;;
21543;SDS011;10933;50.754;11.508;2022-09-12T05:05:08;13.80;;;9.87;;
21543;SDS011;10933;50.754;11.508;2022-09-12T05:07:35;16.70;;;9.17;;
21543;SDS011;10933;50.754;11.508;2022-09-12T05:10:02;17.37;;;10.27;;
21543;SDS011;10933;50.754;11.508;2022-09-12T05:12:29;11.33;;;10.47;;
21543;SDS011;10933;50.754;11.508;2022-09-12T05:14:55;15.37;;;10.10;;
21543;SDS011;10933;50.754;11.508;2022-09-12T05:17:21;11.27;;;10.23;;
21543;SDS011;10933;50.754;11.508;2022-09-12T05:19:48;28.77;;;10.70;;
21543;SDS011;10933;50.754;11.508;2022-09-12T05:22:14;25.63;;;11.80;;
21543;SDS011;10933;50.754;11.508;2022-09-12T05:24:40;28.97;;;12.07;;
21543;SDS011;10933;50.754;11.508;2022-09-12T05:27:08;34.07;;;11.87;;
21543;SDS011;10933;50.754;11.508;2022-09-12T05:29:35;26.80;;;12.00;;
21543;SDS011;10933;50.754;11.508;2022-09-12T05:32:01;13.00;;;11.80;;
21543;SDS011;10933;50.754;11.508;2022-09-12T05:34:27;16.60;;;11.50;;
21543;SDS011;10933;50.754;11.508;2022-09-12T05:36:53;17.10;;;10.33;;
21543;SDS011;10933;50.754;11.508;2022-09-12T05:39:19;11.30;;;10.50;;
21543;SDS011;10933;50.754;11.508;2022-09-12T05:41:46;10.27;;;9.40;;
21543;SDS011;10933;50.754;11.508;2022-09-12T05:44:12;10.43;;;9.50;;
21543;SDS011;10933;50.754;11.508;2022-09-12T05:46:40;8.30;;;7.80;;
21543;SDS011;10933;50.754;11.508;2022-09-12T05:49:08;7.67;;;7.17;;
21543;SDS011;10933;50.754;11.508;2022-09-12T05:51:37;7.30;;;6.90;;
21543;SDS011;10933;50.754;11.508;2022-09-12T05:54:06;6.97;;;6.37;;
21543;SDS011;10933;50.754;11.508;2022-09-12T05:56:36;6.13;;;5.83;;
21543;SDS011;10933;50.754;11.508;2022-09-12T05:59:09;7.17;;;6.67;;
21543;SDS011;10933;50.754;11.508;2022-09-12T06:01:38;8.60;;;8.00;;
21543;SDS011;10933;50.754;11.508;2022-09-12T06:04:05;9.10;;;8.43;;
21543;SDS011;10933;50.754;11.508;2022-09-12T06:06:34;9.00;;;8.17;;
21543;SDS011;10933;50.754;11.508;2022-09-12T06:09:03;7.27;;;6.87;;
21543;SDS011;10933;50.754;11.508;2022-09-12T06:11:31;7.47;;;6.80;;
21543;SDS011;10933;50.754;11.508;2022-09-12T06:13:59;7.47;;;6.63;;
21543;SDS011;10933;50.754;11.508;2022-09-12T06:16:27;8.67;;;8.00;;
21543;SDS011;10933;50.754;11.508;2022-09-12T06:19:01;8.07;;;7.47;;
21543;SDS011;10933;50.754;11.508;2022-09-12T06:21:30;8.77;;;7.33;;
21543;SDS011;10933;50.754;11.508;2022-09-12T06:23:59;8.43;;;7.80;;
21543;SDS011;10933;50.754;11.508;2022-09-12T06:26:26;7.63;;;6.93;;
21543;SDS011;10933;50.754;11.508;2022-09-12T06:28:53;6.67;;;6.33;;
21543;SDS011;10933;50.754;11.508;2022-09-12T06:31:22;8.07;;;7.60;;
21543;SDS011;10933;50.754;11.508;2022-09-12T06:33:50;7.87;;;7.37;;
21543;SDS011;10933;50.754;11.508;2022-09-12T06:36:22;6.80;;;6.40;;
21543;SDS011;10933;50.754;11.508;2022-09-12T06:38:53;8.60;;;6.47;;
21543;SDS011;10933;50.754;11.508;2022-09-12T06:41:21;6.63;;;6.23;;
21543;SDS011;10933;50.754;11.508;2022-09-12T06:43:48;8.40;;;7.87;;
21543;SDS011;10933;50.754;11.508;2022-09-12T06:46:14;8.30;;;7.80;;
21543;SDS011;10933;50.754;11.508;2022-09-12T06:48:41;10.63;;;9.67;;
21543;SDS011;10933;50.754;11.508;2022-09-12T06:51:11;25.90;;;10.57;;
21543;SDS011;10933;50.754;11.508;2022-09-12T06:53:39;9.87;;;9.27;;
21543;SDS011;10933;50.754;11.508;2022-09-12T06:56:10;13.02;;;12.00;;
21543;SDS011;10933;50.754;11.508;2022-09-12T06:58:38;11.03;;;10.13;;
21543;SDS011;10933;50.754;11.508;2022-09-12T07:03:35;12.87;;;11.73;;
21543;SDS011;10933;50.754;11.508;2022-09-12T07:06:06;11.70;;;10.20;;
21543;SDS011;10933;50.754;11.508;2022-09-12T07:08:35;14.43;;;11.30;;
21543;SDS011;10933;50.754;11.508;2022-09-12T07:11:12;11.17;;;10.53;;
21543;SDS011;10933;50.754;11.508;2022-09-12T07:13:44;10.70;;;9.93;;
21543;SDS011;10933;50.754;11.508;2022-09-12T07:16:15;14.23;;;11.00;;
21543;SDS011;10933;50.754;11.508;2022-09-12T07:18:42;11.35;;;10.40;;
21543;SDS011;10933;50.754;11.508;2022-09-12T07:21:11;11.10;;;10.05;;
21543;SDS011;10933;50.754;11.508;2022-09-12T07:23:39;11.70;;;10.50;;
21543;SDS011;10933;50.754;11.508;2022-09-12T07:26:06;11.43;;;10.07;;
21543;SDS011;10933;50.754;11.508;2022-09-12T07:28:36;11.40;;;10.70;;
21543;SDS011;10933;50.754;11.508;2022-09-12T07:31:04;12.80;;;9.87;;
21543;SDS011;10933;50.754;11.508;2022-09-12T07:33:35;11.10;;;10.30;;
21543;SDS011;10933;50.754;11.508;2022-09-12T07:36:03;13.48;;;12.48;;
21543;SDS011;10933;50.754;11.508;2022-09-12T07:38:35;12.60;;;10.40;;
21543;SDS011;10933;50.754;11.508;2022-09-12T07:41:12;10.40;;;9.73;;
21543;SDS011;10933;50.754;11.508;2022-09-12T07:43:47;10.38;;;9.63;;
21543;SDS011;10933;50.754;11.508;2022-09-12T07:46:20;13.25;;;9.27;;
21543;SDS011;10933;50.754;11.508;2022-09-12T07:48:50;9.10;;;8.50;;
21543;SDS011;10933;50.754;11.508;2022-09-12T07:51:17;9.68;;;9.18;;
21543;SDS011;10933;50.754;11.508;2022-09-12T07:53:44;9.68;;;8.73;;
21543;SDS011;10933;50.754;11.508;2022-09-12T07:56:11;10.30;;;9.30;;
21543;SDS011;10933;50.754;11.508;2022-09-12T07:58:38;9.90;;;9.30;;
21543;SDS011;10933;50.754;11.508;2022-09-12T08:03:39;9.13;;;8.63;;
21543;SDS011;10933;50.754;11.508;2022-09-12T08:06:10;10.18;;;9.38;;
21543;SDS011;10933;50.754;11.508;2022-09-12T08:08:38;9.15;;;8.65;;
21543;SDS011;10933;50.754;11.508;2022-09-12T08:11:07;9.15;;;8.65;;
21543;SDS011;10933;50.754;11.508;2022-09-12T08:13:35;8.93;;;8.43;;
21543;SDS011;10933;50.754;11.508;2022-09-12T08:16:04;8.77;;;8.18;;
21543;SDS011;10933;50.754;11.508;2022-09-12T08:18:33;8.75;;;8.05;;
21543;SDS011;10933;50.754;11.508;2022-09-12T08:21:04;9.20;;;8.43;;
21543;SDS011;10933;50.754;11.508;2022-09-12T08:23:32;8.88;;;8.38;;
21543;SDS011;10933;50.754;11.508;2022-09-12T08:25:58;8.68;;;8.18;;
21543;SDS011;10933;50.754;11.508;2022-09-12T08:28:27;7.85;;;7.45;;
21543;SDS011;10933;50.754;11.508;2022-09-12T08:30:59;8.05;;;7.65;;
21543;SDS011;10933;50.754;11.508;2022-09-12T08:33:26;9.95;;;8.25;;
21543;SDS011;10933;50.754;11.508;2022-09-12T08:36:03;9.18;;;8.57;;
21543;SDS011;10933;50.754;11.508;2022-09-12T08:38:35;8.98;;;8.48;;
21543;SDS011;10933;50.754;11.508;2022-09-12T08:44:03;8.55;;;7.85;;
21543;SDS011;10933;50.754;11.508;2022-09-12T08:49:36;8.00;;;7.40;;
21543;SDS011;10933;50.754;11.508;2022-09-12T08:52:20;7.93;;;7.53;;
21543;SDS011;10933;50.754;11.508;2022-09-12T08:54:50;8.43;;;7.93;;
21543;SDS011;10933;50.754;11.508;2022-09-12T08:57:17;7.78;;;7.38;;
21543;SDS011;10933;50.754;11.508;2022-09-12T08:59:44;7.63;;;7.22;;
21543;SDS011;10933;50.754;11.508;2022-09-12T09:02:38;8.48;;;7.97;;
21543;SDS011;10933;50.754;11.508;2022-09-12T09:17:23;7.15;;;6.75;;
21543;SDS011;10933;50.754;11.508;2022-09-12T09:22:52;5.55;;;5.25;;
21543;SDS011;10933;50.754;11.508;2022-09-12T09:28:19;5.40;;;5.18;;
21543;SDS011;10933;50.754;11.508;2022-09-12T09:30:49;5.30;;;5.05;;
21543;SDS011;10933;50.754;11.508;2022-09-12T09:33:23;5.53;;;5.13;;
21543;SDS011;10933;50.754;11.508;2022-09-12T09:36:03;5.07;;;4.88;;
21543;SDS011;10933;50.754;11.508;2022-09-12T09:38:48;5.00;;;4.70;;
21543;SDS011;10933;50.754;11.508;2022-09-12T09:44:38;4.50;;;4.30;;
21543;SDS011;10933;50.754;11.508;2022-09-12T09:47:05;5.00;;;4.70;;
21543;SDS011;10933;50.754;11.508;2022-09-12T09:49:34;4.65;;;4.35;;
21543;SDS011;10933;50.754;11.508;2022-09-12T09:52:01;4.50;;;4.10;;
21543;SDS011;10933;50.754;11.508;2022-09-12T09:56:59;5.03;;;4.82;;
21543;SDS011;10933;50.754;11.508;2022-09-12T10:01:54;5.18;;;4.90;;
21543;SDS011;10933;50.754;11.508;2022-09-12T10:04:28;4.60;;;4.25;;
21543;SDS011;10933;50.754;11.508;2022-09-12T10:06:56;4.78;;;4.57;;
21543;SDS011;10933;50.754;11.508;2022-09-12T10:09:25;4.63;;;4.25;;
21543;SDS011;10933;50.754;11.508;2022-09-12T10:11:53;4.90;;;4.22;;
21543;SDS011;10933;50.754;11.508;2022-09-12T10:14:40;4.35;;;4.07;;
21543;SDS011;10933;50.754;11.508;2022-09-12T10:19:56;3.83;;;3.63;;
21543;SDS011;10933;50.754;11.508;2022-09-12T10:22:24;4.50;;;4.30;;
21543;SDS011;10933;50.754;11.508;2022-09-12T10:24:53;4.20;;;4.00;;
21543;SDS011;10933;50.754;11.508;2022-09-12T10:27:23;4.93;;;4.60;;
21543;SDS011;10933;50.754;11.508;2022-09-12T10:32:53;4.10;;;3.90;;
21543;SDS011;10933;50.754;11.508;2022-09-12T10:35:30;3.20;;;3.10;;
21543;SDS011;10933;50.754;11.508;2022-09-12T10:38:16;2.80;;;2.60;;
21543;SDS011;10933;50.754;11.508;2022-09-12T10:40:54;1.70;;;1.60;;
21543;SDS011;10933;50.754;11.508;2022-09-12T10:45:49;2.15;;;2.05;;
21543;SDS011;10933;50.754;11.508;2022-09-12T10:48:31;2.67;;;2.05;;
21543;SDS011;10933;50.754;11.508;2022-09-12T10:50:58;2.33;;;2.20;;
21543;SDS011;10933;50.754;11.508;2022-09-12T10:53:27;2.70;;;2.50;;
21543;SDS011;10933;50.754;11.508;2022-09-12T11:06:52;2.47;;;2.28;;
21543;SDS011;10933;50.754;11.508;2022-09-12T11:09:46;2.38;;;2.28;;
21543;SDS011;10933;50.754;11.508;2022-09-12T11:12:23;2.22;;;2.13;;
21543;SDS011;10933;50.754;11.508;2022-09-12T11:15:12;2.33;;;2.22;;
21543;SDS011;10933;50.754;11.508;2022-09-12T11:23:25;2.00;;;1.90;;
21543;SDS011;10933;50.754;11.508;2022-09-12T11:26:15;2.40;;;2.20;;
21543;SDS011;10933;50.754;11.508;2022-09-12T11:39:48;1.58;;;1.48;;
21543;SDS011;10933;50.754;11.508;2022-09-12T11:42:25;1.30;;;1.20;;
21543;SDS011;10933;50.754;11.508;2022-09-12T11:45:03;1.30;;;1.30;;
21543;SDS011;10933;50.754;11.508;2022-09-12T11:47:53;1.00;;;1.00;;
21543;SDS011;10933;50.754;11.508;2022-09-12T11:50:25;1.50;;;1.40;;
21543;SDS011;10933;50.754;11.508;2022-09-12T11:53:14;1.23;;;1.10;;
21543;SDS011;10933;50.754;11.508;2022-09-12T11:58:24;1.55;;;1.45;;
21543;SDS011;10933;50.754;11.508;2022-09-12T12:00:57;0.95;;;0.95;;
21543;SDS011;10933;50.754;11.508;2022-09-12T12:03:43;1.17;;;1.17;;
21543;SDS011;10933;50.754;11.508;2022-09-12T12:08:53;6.05;;;1.30;;
21543;SDS011;10933;50.754;11.508;2022-09-12T12:11:42;1.60;;;1.30;;
21543;SDS011;10933;50.754;11.508;2022-09-12T12:14:22;1.42;;;1.33;;
21543;SDS011;10933;50.754;11.508;2022-09-12T12:16:56;1.33;;;1.30;;
21543;SDS011;10933;50.754;11.508;2022-09-12T12:19:33;1.30;;;1.20;;
21543;SDS011;10933;50.754;11.508;2022-09-12T12:22:05;1.67;;;1.58;;
21543;SDS011;10933;50.754;11.508;2022-09-12T12:24:51;1.30;;;1.20;;
21543;SDS011;10933;50.754;11.508;2022-09-12T12:27:59;1.10;;;1.10;;
21543;SDS011;10933;50.754;11.508;2022-09-12T12:36:00;1.33;;;1.13;;
21543;SDS011;10933;50.754;11.508;2022-09-12T12:38:34;1.13;;;1.10;;
21543;SDS011;10933;50.754;11.508;2022-09-12T12:43:44;0.90;;;0.90;;
21543;SDS011;10933;50.754;11.508;2022-09-12T12:46:15;1.33;;;1.17;;
21543;SDS011;10933;50.754;11.508;2022-09-12T12:53:56;1.00;;;1.00;;
21543;SDS011;10933;50.754;11.508;2022-09-12T12:58:58;2.15;;;1.15;;
21543;SDS011;10933;50.754;11.508;2022-09-12T13:01:26;2.67;;;1.08;;
21543;SDS011;10933;50.754;11.508;2022-09-12T13:04:03;1.17;;;1.10;;
21543;SDS011;10933;50.754;11.508;2022-09-12T13:06:45;1.40;;;1.30;;
21543;SDS011;10933;50.754;11.508;2022-09-12T13:12:18;1.55;;;1.40;;
21543;SDS011;10933;50.754;11.508;2022-09-12T13:14:57;1.30;;;1.20;;
21543;SDS011;10933;50.754;11.508;2022-09-12T13:22:42;1.20;;;1.10;;
21543;SDS011;10933;50.754;11.508;2022-09-12T13:28:16;1.20;;;1.10;;
21543;SDS011;10933;50.754;11.508;2022-09-12T13:31:27;0.88;;;0.88;;
21543;SDS011;10933;50.754;11.508;2022-09-12T13:33:44;0.80;;;0.80;;
21543;SDS011;10933;50.754;11.508;2022-09-12T13:36:19;1.25;;;1.00;;
21543;SDS011;10933;50.754;11.508;2022-09-12T13:41:39;1.55;;;1.45;;
21543;SDS011;10933;50.754;11.508;2022-09-12T13:44:31;1.02;;;1.02;;
21543;SDS011;10933;50.754;11.508;2022-09-12T13:47:24;1.20;;;1.10;;
21543;SDS011;10933;50.754;11.508;2022-09-12T13:50:02;0.90;;;0.90;;
21543;SDS011;10933;50.754;11.508;2022-09-12T13:52:31;1.30;;;1.23;;
21543;SDS011;10933;50.754;11.508;2022-09-12T13:54:59;0.93;;;0.93;;
21543;SDS011;10933;50.754;11.508;2022-09-12T13:57:35;1.00;;;1.00;;
21543;SDS011;10933;50.754;11.508;2022-09-12T14:00:16;1.00;;;1.00;;
21543;SDS011;10933;50.754;11.508;2022-09-12T14:02:43;0.98;;;0.98;;
21543;SDS011;10933;50.754;11.508;2022-09-12T14:05:21;1.55;;;1.45;;
21543;SDS011;10933;50.754;11.508;2022-09-12T14:10:25;1.30;;;1.20;;
21543;SDS011;10933;50.754;11.508;2022-09-12T14:12:57;1.00;;;1.00;;
21543;SDS011;10933;50.754;11.508;2022-09-12T14:15:30;1.20;;;1.20;;
21543;SDS011;10933;50.754;11.508;2022-09-12T14:18:00;2.75;;;1.77;;
21543;SDS011;10933;50.754;11.508;2022-09-12T14:20:29;2.72;;;1.98;;
21543;SDS011;10933;50.754;11.508;2022-09-12T14:23:24;2.08;;;1.98;;
21543;SDS011;10933;50.754;11.508;2022-09-12T14:25:57;2.80;;;2.60;;
21543;SDS011;10933;50.754;11.508;2022-09-12T14:28:27;1.63;;;1.52;;
21543;SDS011;10933;50.754;11.508;2022-09-12T14:31:05;1.88;;;1.77;;
21543;SDS011;10933;50.754;11.508;2022-09-12T14:36:22;6.15;;;4.25;;
21543;SDS011;10933;50.754;11.508;2022-09-12T14:38:50;2.40;;;2.20;;
21543;SDS011;10933;50.754;11.508;2022-09-12T14:41:25;2.13;;;2.03;;
21543;SDS011;10933;50.754;11.508;2022-09-12T14:44:01;1.50;;;1.40;;
21543;SDS011;10933;50.754;11.508;2022-09-12T14:51:37;3.42;;;1.60;;
21543;SDS011;10933;50.754;11.508;2022-09-12T14:54:27;1.63;;;1.52;;
21543;SDS011;10933;50.754;11.508;2022-09-12T14:57:27;1.67;;;1.58;;
21543;SDS011;10933;50.754;11.508;2022-09-12T15:00:04;1.63;;;1.50;;
21543;SDS011;10933;50.754;11.508;2022-09-12T15:02:33;1.60;;;1.50;;
21543;SDS011;10933;50.754;11.508;2022-09-12T15:15:39;1.40;;;1.30;;
21543;SDS011;10933;50.754;11.508;2022-09-12T15:18:13;1.40;;;1.30;;
21543;SDS011;10933;50.754;11.508;2022-09-12T15:20:41;1.67;;;1.58;;
21543;SDS011;10933;50.754;11.508;2022-09-12T15:23:16;1.50;;;1.40;;
21543;SDS011;10933;50.754;11.508;2022-09-12T15:25:43;2.00;;;1.88;;
21543;SDS011;10933;50.754;11.508;2022-09-12T15:28:28;1.90;;;1.73;;
21543;SDS011;10933;50.754;11.508;2022-09-12T15:30:56;1.98;;;1.70;;
21543;SDS011;10933;50.754;11.508;2022-09-12T15:33:25;2.53;;;1.80;;
21543;SDS011;10933;50.754;11.508;2022-09-12T15:35:51;1.30;;;1.30;;
21543;SDS011;10933;50.754;11.508;2022-09-12T15:38:18;1.52;;;1.42;;
21543;SDS011;10933;50.754;11.508;2022-09-12T15:40:47;1.42;;;1.33;;
21543;SDS011;10933;50.754;11.508;2022-09-12T15:43:17;1.63;;;1.52;;
21543;SDS011;10933;50.754;11.508;2022-09-12T15:45:45;1.50;;;1.40;;
21543;SDS011;10933;50.754;11.508;2022-09-12T15:48:12;1.95;;;1.85;;
21543;SDS011;10933;50.754;11.508;2022-09-12T15:50:39;2.05;;;1.85;;
21543;SDS011;10933;50.754;11.508;2022-09-12T15:53:07;4.53;;;1.50;;
21543;SDS011;10933;50.754;11.508;2022-09-12T15:55:43;1.70;;;1.60;;
21543;SDS011;10933;50.754;11.508;2022-09-12T15:58:09;1.70;;;1.60;;
21543;SDS011;10933;50.754;11.508;2022-09-12T16:00:36;1.75;;;1.65;;
21543;SDS011;10933;50.754;11.508;2022-09-12T16:03:02;1.60;;;1.50;;
21543;SDS011;10933;50.754;11.508;2022-09-12T16:05:29;6.03;;;1.95;;
21543;SDS011;10933;50.754;11.508;2022-09-12T16:07:55;2.20;;;2.03;;
21543;SDS011;10933;50.754;11.508;2022-09-12T16:10:23;3.58;;;1.65;;
21543;SDS011;10933;50.754;11.508;2022-09-12T16:12:51;1.50;;;1.40;;
21543;SDS011;10933;50.754;11.508;2022-09-12T16:15:18;2.58;;;1.63;;
21543;SDS011;10933;50.754;11.508;2022-09-12T16:17:46;1.92;;;1.80;;
21543;SDS011;10933;50.754;11.508;2022-09-12T16:20:13;2.38;;;1.73;;
21543;SDS011;10933;50.754;11.508;2022-09-12T16:22:40;1.85;;;1.70;;
21543;SDS011;10933;50.754;11.508;2022-09-12T16:25:06;3.38;;;3.17;;
21543;SDS011;10933;50.754;11.508;2022-09-12T16:27:33;3.15;;;2.10;;
21543;SDS011;10933;50.754;11.508;2022-09-12T16:30:00;2.22;;;2.03;;
21543;SDS011;10933;50.754;11.508;2022-09-12T16:32:27;1.83;;;1.73;;
21543;SDS011;10933;50.754;11.508;2022-09-12T16:34:53;6.90;;;1.85;;
21543;SDS011;10933;50.754;11.508;2022-09-12T16:37:19;1.90;;;1.80;;
21543;SDS011;10933;50.754;11.508;2022-09-12T16:39:46;3.33;;;1.98;;
21543;SDS011;10933;50.754;11.508;2022-09-12T16:42:13;1.88;;;1.77;;
21543;SDS011;10933;50.754;11.508;2022-09-12T16:44:43;1.65;;;1.55;;
21543;SDS011;10933;50.754;11.508;2022-09-12T16:47:10;1.70;;;1.60;;
21543;SDS011;10933;50.754;11.508;2022-09-12T16:49:36;1.80;;;1.70;;
21543;SDS011;10933;50.754;11.508;2022-09-12T16:52:02;1.70;;;1.60;;
21543;SDS011;10933;50.754;11.508;2022-09-12T16:54:29;1.88;;;1.77;;
21543;SDS011;10933;50.754;11.508;2022-09-12T16:56:55;1.52;;;1.42;;
21543;SDS011;10933;50.754;11.508;2022-09-12T16:59:21;2.03;;;1.92;;
21543;SDS011;10933;50.754;11.508;2022-09-12T17:01:47;2.20;;;2.03;;
21543;SDS011;10933;50.754;11.508;2022-09-12T17:04:13;4.18;;;1.88;;
21543;SDS011;10933;50.754;11.508;2022-09-12T17:06:39;2.20;;;2.10;;
21543;SDS011;10933;50.754;11.508;2022-09-12T17:09:06;2.13;;;2.03;;
21543;SDS011;10933;50.754;11.508;2022-09-12T17:11:33;2.22;;;1.80;;
21543;SDS011;10933;50.754;11.508;2022-09-12T17:14:01;2.10;;;1.90;;
21543;SDS011;10933;50.754;11.508;2022-09-12T17:16:30;2.55;;;2.10;;
21543;SDS011;10933;50.754;11.508;2022-09-12T17:18:57;4.90;;;1.67;;
21543;SDS011;10933;50.754;11.508;2022-09-12T17:21:23;2.78;;;2.58;;
21543;SDS011;10933;50.754;11.508;2022-09-12T17:23:49;2.50;;;2.40;;
21543;SDS011;10933;50.754;11.508;2022-09-12T17:26:15;4.55;;;2.10;;
21543;SDS011;10933;50.754;11.508;2022-09-12T17:28:42;3.22;;;1.60;;
21543;SDS011;10933;50.754;11.508;2022-09-12T17:31:09;3.15;;;2.30;;
21543;SDS011;10933;50.754;11.508;2022-09-12T17:33:36;2.20;;;2.00;;
21543;SDS011;10933;50.754;11.508;2022-09-12T17:36:04;1.98;;;1.88;;
21543;SDS011;10933;50.754;11.508;2022-09-12T17:38:35;1.83;;;1.73;;
21543;SDS011;10933;50.754;11.508;2022-09-12T17:41:07;2.17;;;2.08;;